Time;durP1;ratioP1;P1;durP2;ratioP2;P2;SDS_P1;SDS_P2;PMS_P1;PMS_P2;Temp;Humidity;BMP_temperature;BMP_pressure;BME280_temperature;BME280_humidity;BME280_pressure;Samples;Min_cycle;Max_cycle;Signal;HPM_P1;HPM_P2
2023/07/02 00:01:23;;;;;;;27.88;9.80;;;;;;;19.81;62.66;100567.09;7358135;19;20022;-65
2023/07/02 00:03:50;;;;;;;26.35;10.07;;;;;;;19.79;63.12;100566.53;7355672;19;20014;-65
2023/07/02 00:06:18;;;;;;;25.48;9.68;;;;;;;19.81;63.12;100568.97;7360480;19;20019;-65
2023/07/02 00:08:45;;;;;;;25.15;10.40;;;;;;;19.80;63.46;100570.00;7361987;19;20034;-65
2023/07/02 00:11:15;;;;;;;29.35;10.95;;;;;;;19.77;63.80;100575.78;7360145;19;20022;-65
2023/07/02 00:13:43;;;;;;;28.50;11.38;;;;;;;19.74;63.86;100570.88;7358538;19;20007;-67
2023/07/02 00:16:10;;;;;;;28.00;11.23;;;;;;;19.70;64.01;100573.19;7359201;19;20011;-65
2023/07/02 00:18:38;;;;;;;33.72;10.25;;;;;;;19.68;64.12;100574.41;7352976;19;20019;-64
2023/07/02 00:21:05;;;;;;;31.33;9.98;;;;;;;19.64;63.81;100569.53;7358146;19;20812;-65
2023/07/02 00:23:33;;;;;;;28.13;9.38;;;;;;;19.60;63.71;100570.19;7359067;19;20025;-65
2023/07/02 00:26:00;;;;;;;27.20;9.75;;;;;;;19.58;63.56;100573.06;7357457;19;20082;-65
2023/07/02 00:28:28;;;;;;;33.65;9.75;;;;;;;19.57;63.53;100571.41;7360522;19;20331;-65
2023/07/02 00:30:55;;;;;;;27.45;9.93;;;;;;;19.55;63.74;100576.19;7356962;19;20517;-64
2023/07/02 00:33:24;;;;;;;26.63;10.32;;;;;;;19.53;64.16;100564.88;7353211;19;20016;-66
2023/07/02 00:35:51;;;;;;;28.80;10.27;;;;;;;19.52;64.20;100573.09;7356660;19;20531;-65
2023/07/02 00:38:19;;;;;;;34.00;9.50;;;;;;;19.46;64.74;100569.44;7357900;19;20554;-65
2023/07/02 00:40:46;;;;;;;25.85;9.32;;;;;;;19.43;64.23;100567.19;7358427;19;20022;-65
2023/07/02 00:43:14;;;;;;;25.27;9.63;;;;;;;19.39;63.97;100573.19;7360702;19;20475;-65
2023/07/02 00:45:41;;;;;;;31.42;10.02;;;;;;;19.40;63.93;100578.28;7357165;19;20048;-65
2023/07/02 00:48:09;;;;;;;27.35;8.90;;;;;;;19.36;63.95;100570.94;7356797;19;20019;-65
2023/07/02 00:50:37;;;;;;;26.38;9.32;;;;;;;19.32;63.77;100575.06;7369922;19;20042;-65
2023/07/02 00:53:05;;;;;;;26.80;9.13;;;;;;;19.29;63.19;100575.53;7357465;19;20600;-65
2023/07/02 00:55:32;;;;;;;27.10;9.43;;;;;;;19.28;63.62;100571.22;7357688;19;20081;-65
2023/07/02 00:57:59;;;;;;;27.95;9.10;;;;;;;19.23;62.89;100578.03;7357193;19;20021;-65
2023/07/02 01:00:28;;;;;;;25.60;8.10;;;;;;;19.18;63.58;100574.34;7356145;19;20015;-64
2023/07/02 01:02:58;;;;;;;27.42;9.10;;;;;;;19.13;63.42;100575.00;7359538;19;20387;-65
2023/07/02 01:05:32;;;;;;;29.02;9.02;;;;;;;19.13;63.43;100576.84;7362688;19;20022;-64
2023/07/02 01:07:59;;;;;;;24.65;8.73;;;;;;;19.10;63.06;100583.41;7365841;19;20019;-64
2023/07/02 01:10:27;;;;;;;26.75;8.95;;;;;;;19.12;63.66;100592.03;7363513;19;20155;-65
2023/07/02 01:12:55;;;;;;;24.40;8.57;;;;;;;19.12;63.71;100591.22;7362178;19;20185;-65
2023/07/02 01:15:23;;;;;;;21.27;8.32;;;;;;;19.10;63.95;100591.41;7363260;19;20489;-64
2023/07/02 01:17:52;;;;;;;27.33;8.65;;;;;;;19.10;64.50;100593.28;7358466;19;20015;-64
2023/07/02 01:20:20;;;;;;;24.55;8.38;;;;;;;19.10;64.49;100593.28;7359960;19;20508;-65
2023/07/02 01:22:51;;;;;;;26.83;8.52;;;;;;;19.07;64.61;100597.19;7365356;19;20114;-64
2023/07/02 01:25:18;;;;;;;27.88;9.30;;;;;;;19.05;65.01;100601.91;7364405;19;20018;-64
2023/07/02 01:27:46;;;;;;;22.63;8.15;;;;;;;19.06;65.71;100592.88;7363298;19;20015;-65
2023/07/02 01:30:14;;;;;;;29.27;8.93;;;;;;;19.02;65.81;100594.34;7364184;19;20621;-64
2023/07/02 01:32:41;;;;;;;24.70;8.85;;;;;;;18.97;66.29;100604.03;7363597;19;20385;-65
2023/07/02 01:35:09;;;;;;;24.30;8.60;;;;;;;18.96;66.92;100599.72;7364078;19;20026;-64
2023/07/02 01:37:37;;;;;;;23.63;9.25;;;;;;;18.97;67.78;100604.03;7364645;19;20022;-65
2023/07/02 01:40:06;;;;;;;25.60;10.10;;;;;;;18.97;68.27;100601.34;7363380;19;20036;-65
2023/07/02 01:42:33;;;;;;;27.85;9.40;;;;;;;18.89;68.83;100609.63;7361086;19;20030;-65
2023/07/02 01:45:01;;;;;;;27.58;9.20;;;;;;;18.83;69.07;100605.13;7360849;19;20407;-64
2023/07/02 01:47:28;;;;;;;25.10;9.15;;;;;;;18.79;69.07;100605.53;7362137;19;22005;-65
2023/07/02 01:49:56;;;;;;;26.08;9.57;;;;;;;18.78;69.36;100611.09;7362516;19;20006;-64
2023/07/02 01:52:23;;;;;;;28.05;10.43;;;;;;;18.76;69.46;100607.81;7366489;19;20670;-64
2023/07/02 01:54:52;;;;;;;30.80;10.05;;;;;;;18.73;69.17;100600.25;7362236;19;20505;-65
2023/07/02 01:57:19;;;;;;;25.23;9.15;;;;;;;18.73;69.99;100614.41;7362293;19;21281;-65
2023/07/02 01:59:47;;;;;;;27.25;9.18;;;;;;;18.74;69.39;100608.00;7361040;19;20010;-64
2023/07/02 02:02:14;;;;;;;27.83;8.73;;;;;;;18.73;69.22;100605.56;7362495;19;20020;-66
2023/07/02 02:04:42;;;;;;;24.40;9.35;;;;;;;18.71;69.48;100603.13;7361872;19;20015;-65
2023/07/02 02:07:09;;;;;;;28.85;9.25;;;;;;;18.69;68.91;100605.16;7363380;19;20392;-65
2023/07/02 02:09:37;;;;;;;29.85;8.85;;;;;;;18.68;69.09;100602.72;7364970;19;20025;-64
2023/07/02 02:12:04;;;;;;;27.90;9.18;;;;;;;18.66;68.94;100604.78;7361877;19;20030;-65
2023/07/02 02:14:32;;;;;;;23.42;8.48;;;;;;;18.63;68.60;100608.69;7359469;19;20658;-65
2023/07/02 02:16:59;;;;;;;28.33;8.82;;;;;;;18.61;68.36;100615.25;7358022;19;20110;-64
2023/07/02 02:19:29;;;;;;;28.55;8.15;;;;;;;18.57;68.11;100614.88;7358917;19;20011;-65
2023/07/02 02:21:56;;;;;;;22.98;8.05;;;;;;;18.55;68.17;100608.91;7358869;19;20133;-64
2023/07/02 02:24:24;;;;;;;25.67;9.00;;;;;;;18.53;69.05;100615.47;7361265;19;20006;-64
2023/07/02 02:26:51;;;;;;;24.38;8.40;;;;;;;18.51;68.08;100614.84;7363226;19;20026;-65
2023/07/02 02:29:19;;;;;;;26.52;8.05;;;;;;;18.46;67.48;100618.13;7364252;19;20018;-64
2023/07/02 02:31:46;;;;;;;23.80;8.18;;;;;;;18.43;67.16;100618.56;7361813;19;20042;-65
2023/07/02 02:34:14;;;;;;;24.50;7.43;;;;;;;18.39;67.02;100612.00;7358985;19;20663;-64
2023/07/02 02:36:41;;;;;;;30.73;8.98;;;;;;;18.37;66.71;100614.88;7359828;19;20475;-64
2023/07/02 02:39:09;;;;;;;25.88;8.35;;;;;;;18.35;66.40;100616.94;7361908;19;20074;-65
2023/07/02 02:41:36;;;;;;;25.88;7.53;;;;;;;18.32;66.74;100620.03;7363073;19;20509;-65
2023/07/02 02:44:04;;;;;;;25.63;7.85;;;;;;;18.29;66.68;100623.09;7359147;19;20049;-65
2023/07/02 02:46:31;;;;;;;20.80;7.20;;;;;;;18.27;66.81;100621.69;7361384;19;20018;-65
2023/07/02 02:48:59;;;;;;;21.05;6.82;;;;;;;18.20;66.60;100621.69;7360751;19;20018;-66
2023/07/02 02:51:26;;;;;;;22.35;6.97;;;;;;;18.17;66.26;100621.28;7362991;19;20503;-65
2023/07/02 02:53:54;;;;;;;20.65;7.13;;;;;;;18.12;66.65;100629.06;7365509;19;20017;-65
2023/07/02 02:56:21;;;;;;;23.90;7.65;;;;;;;18.10;66.57;100623.94;7363691;19;20030;-65
2023/07/02 02:58:49;;;;;;;24.85;7.78;;;;;;;18.06;66.71;100628.06;7360114;19;20606;-65
2023/07/02 03:01:16;;;;;;;25.02;7.55;;;;;;;18.05;66.20;100636.25;7361401;19;20014;-65
2023/07/02 03:03:45;;;;;;;25.48;7.43;;;;;;;18.00;66.41;100628.88;7359643;19;20018;-66
2023/07/02 03:06:14;;;;;;;22.00;7.30;;;;;;;17.96;66.32;100625.00;7360553;19;20047;-64
2023/07/02 03:08:42;;;;;;;23.30;7.50;;;;;;;17.93;67.06;100625.38;7359418;19;20018;-64
2023/07/02 03:11:10;;;;;;;24.58;7.28;;;;;;;17.94;67.32;100627.03;7359591;19;20217;-65
2023/07/02 03:13:37;;;;;;;19.70;7.22;;;;;;;17.90;67.18;100625.81;7358738;19;20309;-65
2023/07/02 03:16:06;;;;;;;26.48;7.43;;;;;;;17.87;67.12;100634.22;7359984;19;20074;-64
2023/07/02 03:18:34;;;;;;;17.85;7.07;;;;;;;17.87;67.08;100631.56;7359402;19;20498;-65
2023/07/02 03:21:01;;;;;;;20.58;6.68;;;;;;;17.85;66.87;100631.75;7357613;19;20109;-63
2023/07/02 03:23:29;;;;;;;22.30;6.85;;;;;;;17.84;67.46;100624.78;7358643;19;20049;-64
2023/07/02 03:25:56;;;;;;;20.70;7.18;;;;;;;17.86;67.63;100635.22;7358064;19;20041;-64
2023/07/02 03:28:23;;;;;;;25.63;6.72;;;;;;;17.85;67.38;100639.75;7361066;19;20514;-64
2023/07/02 03:30:51;;;;;;;20.80;7.07;;;;;;;17.85;67.63;100633.59;7361380;19;20018;-65
2023/07/02 03:33:19;;;;;;;22.65;6.95;;;;;;;17.84;67.56;100640.75;7357820;19;20018;-65
2023/07/02 03:35:46;;;;;;;23.73;7.30;;;;;;;17.85;67.35;100636.25;7358813;19;20019;-65
2023/07/02 03:38:14;;;;;;;25.27;6.80;;;;;;;17.82;67.26;100637.50;7358861;19;20006;-64
2023/07/02 03:40:42;;;;;;;27.35;7.40;;;;;;;17.79;67.96;100635.22;7360200;19;20025;-64
2023/07/02 03:43:10;;;;;;;25.25;7.72;;;;;;;17.81;67.77;100641.19;7361349;19;20127;-65
2023/07/02 03:45:37;;;;;;;22.67;6.22;;;;;;;17.77;67.89;100639.94;7355952;19;20369;-64
2023/07/02 03:48:05;;;;;;;22.65;7.43;;;;;;;17.77;68.38;100639.13;7357308;19;20967;-64
2023/07/02 03:50:32;;;;;;;23.63;6.95;;;;;;;17.77;68.85;100641.78;7358982;19;20134;-64
2023/07/02 03:53:00;;;;;;;24.42;6.80;;;;;;;17.76;68.86;100646.28;7361441;19;20022;-64
2023/07/02 03:55:27;;;;;;;25.52;7.50;;;;;;;17.76;69.59;100650.78;7361917;19;20014;-64
2023/07/02 03:57:55;;;;;;;19.65;6.88;;;;;;;17.72;68.91;100655.72;7363226;19;20043;-66
2023/07/02 04:00:22;;;;;;;23.30;7.28;;;;;;;17.70;69.41;100649.75;7359596;19;20014;-64
2023/07/02 04:02:49;;;;;;;22.08;6.30;;;;;;;17.66;69.02;100651.19;7360033;19;20011;-64
2023/07/02 04:05:17;;;;;;;22.23;6.78;;;;;;;17.67;69.91;100650.19;7358635;19;20019;-64
2023/07/02 04:07:44;;;;;;;21.92;7.43;;;;;;;17.68;70.25;100653.63;7362352;19;20026;-64
2023/07/02 04:10:11;;;;;;;21.30;6.32;;;;;;;17.69;70.17;100656.09;7358289;19;20019;-66
2023/07/02 04:12:39;;;;;;;27.13;6.88;;;;;;;17.71;70.54;100663.91;7360303;19;20022;-64
2023/07/02 04:15:08;;;;;;;30.70;7.60;;;;;;;17.67;70.79;100654.69;7359888;19;20090;-64
2023/07/02 04:17:35;;;;;;;18.55;6.65;;;;;;;17.64;70.82;100647.91;7356953;19;20025;-65
2023/07/02 04:20:03;;;;;;;26.02;7.15;;;;;;;17.63;71.12;100653.44;7353581;19;20360;-64
2023/07/02 04:22:31;;;;;;;21.77;7.07;;;;;;;17.58;72.30;100656.66;7357307;19;20030;-65
2023/07/02 04:24:58;;;;;;;21.58;6.68;;;;;;;17.57;72.58;100656.88;7357133;19;20017;-65
2023/07/02 04:27:36;;;;;;;24.33;7.95;;;;;;;17.55;72.11;100665.06;7360713;19;20018;-66
2023/07/02 04:30:17;;;;;;;22.40;6.68;;;;;;;17.56;72.12;100668.56;7356634;19;20022;-64
2023/07/02 04:32:44;;;;;;;20.00;7.03;;;;;;;17.58;71.96;100677.13;7359147;19;20756;-64
2023/07/02 04:35:12;;;;;;;24.00;6.50;;;;;;;17.61;72.53;100674.13;7359495;19;20089;-65
2023/07/02 04:37:39;;;;;;;25.80;6.97;;;;;;;17.59;72.51;100676.13;7360222;19;20065;-64
2023/07/02 04:40:10;;;;;;;21.40;6.38;;;;;;;17.60;72.29;100675.97;7366356;19;20106;-65
2023/07/02 04:42:39;;;;;;;24.60;7.18;;;;;;;17.56;71.87;100674.69;7369117;19;20776;-64
2023/07/02 04:45:08;;;;;;;21.52;6.40;;;;;;;17.48;72.26;100675.69;7365933;19;20354;-64
2023/07/02 04:47:35;;;;;;;24.80;6.70;;;;;;;17.45;72.23;100673.44;7362617;19;21274;-65
2023/07/02 04:50:05;;;;;;;21.98;6.75;;;;;;;17.45;72.09;100681.41;7366082;19;20047;-65
2023/07/02 04:52:33;;;;;;;22.73;6.90;;;;;;;17.45;72.39;100677.94;7363305;19;21121;-64
2023/07/02 04:55:00;;;;;;;24.95;7.10;;;;;;;17.42;72.28;100679.16;7369349;19;20554;-63
2023/07/02 04:57:28;;;;;;;26.35;6.38;;;;;;;17.42;71.93;100678.34;7367300;19;20359;-65
2023/07/02 04:59:55;;;;;;;26.00;6.68;;;;;;;17.40;71.87;100691.03;7365388;19;20194;-64
2023/07/02 05:02:23;;;;;;;21.95;6.32;;;;;;;17.41;71.78;100693.50;7364729;19;20560;-64
2023/07/02 05:04:50;;;;;;;25.73;6.70;;;;;;;17.43;72.38;100690.59;7365605;19;20015;-64
2023/07/02 05:07:18;;;;;;;22.00;5.90;;;;;;;17.44;72.25;100695.75;7361748;19;20022;-64
2023/07/02 05:09:45;;;;;;;19.17;6.63;;;;;;;17.45;71.39;100701.88;7365653;19;20022;-65
2023/07/02 05:12:13;;;;;;;25.13;6.07;;;;;;;17.46;71.00;100699.03;7367127;19;20027;-64
2023/07/02 05:14:40;;;;;;;19.67;6.25;;;;;;;17.45;71.08;100696.56;7364977;19;20010;-65
2023/07/02 05:17:08;;;;;;;25.15;6.90;;;;;;;17.47;70.98;100691.88;7363396;19;20032;-65
2023/07/02 05:19:35;;;;;;;23.50;6.28;;;;;;;17.48;70.90;100707.63;7359855;19;20045;-66
2023/07/02 05:22:03;;;;;;;21.08;5.75;;;;;;;17.46;70.50;100704.34;7364763;19;20018;-64
2023/07/02 05:24:30;;;;;;;24.40;7.10;;;;;;;17.42;70.39;100704.97;7359223;19;20035;-65
2023/07/02 05:26:58;;;;;;;22.10;5.88;;;;;;;17.38;70.64;100707.19;7361799;19;20018;-65
2023/07/02 05:29:25;;;;;;;21.58;5.53;;;;;;;17.39;70.70;100705.34;7361248;19;20570;-64
2023/07/02 05:31:52;;;;;;;19.17;5.22;;;;;;;17.41;70.95;100708.63;7361614;19;21820;-64
2023/07/02 05:34:20;;;;;;;18.65;5.72;;;;;;;17.43;70.15;100710.06;7363116;19;20089;-65
2023/07/02 05:36:47;;;;;;;19.17;5.57;;;;;;;17.48;70.26;100709.44;7363013;19;20017;-65
2023/07/02 05:39:15;;;;;;;22.23;6.05;;;;;;;17.47;69.86;100708.63;7364214;19;20037;-66
2023/07/02 05:41:42;;;;;;;18.25;4.80;;;;;;;17.44;69.66;100713.53;7364828;19;20014;-65
2023/07/02 05:44:10;;;;;;;24.63;5.50;;;;;;;17.44;69.43;100713.53;7363338;19;20011;-65
2023/07/02 05:46:37;;;;;;;22.02;5.30;;;;;;;17.43;69.79;100718.03;7361678;19;20015;-65
2023/07/02 05:49:05;;;;;;;19.40;5.38;;;;;;;17.44;70.19;100717.03;7358083;19;20356;-64
2023/07/02 05:51:33;;;;;;;20.70;5.63;;;;;;;17.47;69.89;100711.28;7364994;19;20094;-65
2023/07/02 05:54:00;;;;;;;18.35;4.88;;;;;;;17.53;69.02;100710.50;7363780;19;20011;-64
2023/07/02 05:56:27;;;;;;;13.70;4.55;;;;;;;17.58;69.16;100712.53;7366407;19;20635;-65
2023/07/02 05:58:55;;;;;;;19.50;4.97;;;;;;;17.61;69.27;100714.03;7359261;19;20086;-64
2023/07/02 06:01:22;;;;;;;19.27;5.18;;;;;;;17.65;68.34;100718.75;7363420;19;20776;-64
2023/07/02 06:03:50;;;;;;;19.70;4.95;;;;;;;17.72;68.32;100716.09;7358401;19;20019;-65
2023/07/02 06:06:18;;;;;;;19.85;4.68;;;;;;;17.74;67.81;100724.69;7362961;19;21239;-69
2023/07/02 06:08:45;;;;;;;17.60;5.45;;;;;;;17.78;67.58;100724.09;7364033;19;20026;-65
2023/07/02 06:11:13;;;;;;;16.90;5.40;;;;;;;17.85;67.21;100729.44;7365704;19;20018;-65
2023/07/02 06:13:40;;;;;;;13.23;4.50;;;;;;;17.87;67.72;100725.56;7364370;19;20018;-65
2023/07/02 06:16:08;;;;;;;15.25;4.82;;;;;;;18.02;67.19;100732.53;7363462;19;20022;-64
2023/07/02 06:18:37;;;;;;;16.33;4.78;;;;;;;18.11;65.83;100734.78;7360712;19;20022;-65
2023/07/02 06:21:04;;;;;;;18.75;5.35;;;;;;;18.15;66.06;100736.00;7365196;19;20253;-64
2023/07/02 06:23:43;;;;;;;16.58;3.85;;;;;;;18.11;64.69;100731.31;7361728;19;20014;-65
2023/07/02 06:26:11;;;;;;;14.05;4.20;;;;;;;18.09;64.91;100733.34;7359083;19;20584;-64
2023/07/02 06:28:39;;;;;;;18.27;4.35;;;;;;;18.06;65.48;100723.94;7361177;19;20018;-65
2023/07/02 06:31:07;;;;;;;17.55;4.07;;;;;;;18.08;65.05;100743.16;7362514;19;20347;-65
2023/07/02 06:33:39;;;;;;;16.77;4.25;;;;;;;18.16;64.91;100744.81;7361525;19;20109;-65
2023/07/02 06:36:06;;;;;;;15.65;4.15;;;;;;;18.29;64.52;100744.81;7361330;19;20014;-66
2023/07/02 06:38:35;;;;;;;16.80;4.63;;;;;;;18.35;64.86;100750.16;7361762;19;20014;-65
2023/07/02 06:41:03;;;;;;;14.02;4.22;;;;;;;18.32;64.04;100736.44;7363850;19;20094;-66
2023/07/02 06:43:31;;;;;;;19.45;4.57;;;;;;;18.35;64.53;100746.66;7362203;19;20014;-65
2023/07/02 06:45:58;;;;;;;14.57;3.97;;;;;;;18.42;65.07;100738.69;7358749;19;20022;-65
2023/07/02 06:48:26;;;;;;;17.23;3.97;;;;;;;18.46;63.67;100740.72;7358683;19;20033;-65
2023/07/02 06:50:53;;;;;;;15.45;4.82;;;;;;;18.46;63.60;100740.72;7358503;19;20601;-65
2023/07/02 06:53:20;;;;;;;18.25;3.92;;;;;;;18.48;63.43;100741.34;7356623;19;20033;-65
2023/07/02 06:55:48;;;;;;;16.30;3.92;;;;;;;18.50;63.32;100739.28;7358555;19;21549;-65
2023/07/02 06:58:15;;;;;;;18.25;4.57;;;;;;;18.47;63.76;100739.69;7357530;19;20115;-65
2023/07/02 07:00:43;;;;;;;12.73;3.33;;;;;;;18.50;64.09;100751.78;7355708;19;20016;-65
2023/07/02 07:03:10;;;;;;;13.05;3.67;;;;;;;18.50;63.76;100751.78;7353178;19;20054;-67
2023/07/02 07:05:38;;;;;;;12.48;3.30;;;;;;;18.48;63.57;100756.50;7356311;19;20383;-66
2023/07/02 07:08:06;;;;;;;14.63;3.47;;;;;;;18.47;62.78;100750.34;7359419;19;20031;-66
2023/07/02 07:10:34;;;;;;;17.08;4.55;;;;;;;18.42;62.42;100746.66;7360837;19;20630;-66
2023/07/02 07:13:02;;;;;;;12.00;3.40;;;;;;;18.42;63.05;100752.00;7361892;19;20113;-65
2023/07/02 07:15:33;;;;;;;14.73;3.95;;;;;;;18.43;63.20;100759.81;7360832;19;20010;-64
2023/07/02 07:18:04;;;;;;;11.40;3.53;;;;;;;18.45;63.12;100762.22;7360405;19;20014;-65
2023/07/02 07:20:31;;;;;;;13.73;3.42;;;;;;;18.42;62.66;100762.66;7362092;19;20025;-65
2023/07/02 07:22:59;;;;;;;10.77;3.67;;;;;;;18.43;62.50;100762.47;7363001;19;20205;-65
2023/07/02 07:25:29;;;;;;;10.70;3.05;;;;;;;18.47;62.07;100760.19;7358997;19;20029;-69
2023/07/02 07:27:59;;;;;;;10.45;3.05;;;;;;;18.51;62.13;100762.25;7358601;19;20030;-66
2023/07/02 07:30:27;;;;;;;15.40;4.43;;;;;;;18.59;62.10;100756.72;7360114;19;20125;-66
2023/07/02 07:32:57;;;;;;;18.70;4.05;;;;;;;18.63;61.88;100763.31;7359805;19;20526;-66
2023/07/02 07:35:25;;;;;;;10.82;2.83;;;;;;;18.72;61.70;100762.06;7358452;19;20014;-65
2023/07/02 07:37:52;;;;;;;11.68;3.20;;;;;;;18.83;61.51;100760.59;7360346;19;21006;-66
2023/07/02 07:40:20;;;;;;;14.32;3.63;;;;;;;19.07;60.72;100759.09;7359495;19;20050;-65
2023/07/02 07:42:47;;;;;;;13.13;2.78;;;;;;;19.45;58.87;100761.88;7360885;19;21698;-64
2023/07/02 07:45:15;;;;;;;15.30;2.97;;;;;;;20.07;57.10;100763.75;7358944;19;20010;-66
2023/07/02 07:47:43;;;;;;;13.35;4.07;;;;;;;21.22;53.34;100770.34;7358321;19;20018;-64
2023/07/02 07:50:11;;;;;;;10.52;2.50;;;;;;;22.12;51.67;100766.66;7358915;19;20375;-65
2023/07/02 07:52:39;;;;;;;10.00;2.90;;;;;;;22.25;49.95;100757.56;7358116;19;20066;-64
2023/07/02 07:55:08;;;;;;;9.35;2.88;;;;;;;22.06;50.50;100759.53;7360870;19;20014;-65
2023/07/02 07:57:37;;;;;;;8.85;2.72;;;;;;;21.87;50.13;100757.94;7359700;19;20089;-65
2023/07/02 08:00:12;;;;;;;10.18;2.97;;;;;;;21.81;49.52;100763.38;7359395;19;20558;-65
2023/07/02 08:02:40;;;;;;;7.07;2.53;;;;;;;21.81;50.56;100753.50;7360043;19;20090;-66
2023/07/02 08:05:08;;;;;;;12.30;2.78;;;;;;;21.64;50.90;100761.34;7359154;19;20022;-64
2023/07/02 08:07:36;;;;;;;8.40;2.88;;;;;;;21.44;51.28;100752.75;7360629;19;21915;-66
2023/07/02 08:10:03;;;;;;;12.93;4.05;;;;;;;21.21;51.24;100749.97;7355353;19;20093;-66
2023/07/02 08:12:31;;;;;;;15.30;3.10;;;;;;;21.05;51.75;100761.22;7359823;19;20042;-65
2023/07/02 08:14:59;;;;;;;12.30;3.17;;;;;;;20.81;52.74;100758.41;7359040;19;20063;-65
2023/07/02 08:17:26;;;;;;;16.63;4.10;;;;;;;20.67;53.13;100756.88;7360693;19;20620;-66
2023/07/02 08:19:54;;;;;;;12.73;3.45;;;;;;;20.64;53.91;100748.50;7358290;19;20034;-65
2023/07/02 08:22:21;;;;;;;11.82;2.75;;;;;;;20.76;52.79;100752.91;7361526;19;20102;-66
2023/07/02 08:24:49;;;;;;;10.85;2.60;;;;;;;20.72;51.87;100754.41;7359677;19;20010;-65
2023/07/02 08:27:19;;;;;;;10.43;3.40;;;;;;;20.68;52.07;100750.50;7357831;19;20034;-65
2023/07/02 08:29:47;;;;;;;13.60;2.72;;;;;;;20.60;51.06;100747.31;7359368;19;20010;-65
2023/07/02 08:32:15;;;;;;;10.18;3.65;;;;;;;20.61;50.45;100748.94;7357419;19;20723;-66
2023/07/02 08:34:43;;;;;;;8.57;3.15;;;;;;;20.81;50.28;100746.88;7356994;19;20019;-66
2023/07/02 08:37:10;;;;;;;9.00;2.95;;;;;;;21.16;50.85;100747.97;7359021;19;20015;-67
2023/07/02 08:39:39;;;;;;;11.25;2.95;;;;;;;21.49;50.17;100741.34;7357721;19;20015;-64
2023/07/02 08:42:07;;;;;;;9.13;2.10;;;;;;;21.58;50.36;100748.88;7359049;19;20090;-66
2023/07/02 08:44:36;;;;;;;7.18;2.22;;;;;;;21.45;49.38;100742.84;7354723;19;20010;-65
2023/07/02 08:47:05;;;;;;;11.15;2.42;;;;;;;21.35;48.91;100743.41;7352295;19;20582;-65
2023/07/02 08:49:33;;;;;;;14.23;2.38;;;;;;;21.19;49.16;100746.69;7356678;19;20018;-65
2023/07/02 08:52:00;;;;;;;10.00;2.10;;;;;;;21.11;50.39;100737.09;7357710;19;20025;-66
2023/07/02 08:54:28;;;;;;;6.93;1.85;;;;;;;21.04;50.38;100743.53;7358434;19;20436;-64
2023/07/02 08:56:56;;;;;;;10.80;2.17;;;;;;;20.96;50.89;100744.66;7361133;19;20530;-64
2023/07/02 08:59:24;;;;;;;12.40;2.35;;;;;;;20.93;51.06;100743.25;7356874;19;20021;-69
2023/07/02 09:01:53;;;;;;;8.73;2.03;;;;;;;20.90;52.19;100748.22;7358432;19;20022;-66
2023/07/02 09:04:24;;;;;;;8.77;2.45;;;;;;;20.88;51.51;100737.75;7355038;19;20006;-65
2023/07/02 09:07:03;;;;;;;9.20;2.15;;;;;;;20.82;51.27;100735.16;7350180;19;20022;-64
2023/07/02 09:09:31;;;;;;;7.38;1.50;;;;;;;20.77;51.74;100743.03;7356611;19;20524;-65
2023/07/02 09:11:59;;;;;;;11.25;2.00;;;;;;;20.69;49.46;100757.50;7356948;19;20018;-65
2023/07/02 09:14:30;;;;;;;6.28;1.30;;;;;;;20.58;48.64;100744.84;7303463;19;21826;-66
2023/07/02 09:17:03;;;;;;;8.20;1.85;;;;;;;20.39;49.56;100748.53;7336646;19;20094;-65
2023/07/02 09:19:30;;;;;;;;;;;;;;;20.29;50.34;100748.97;7340285;19;20007;-65
2023/07/02 09:22:00;;;;;;;9.50;1.58;;;;;;;20.20;52.25;100752.16;7354445;19;19930;-64
2023/07/02 09:24:30;;;;;;;11.38;2.13;;;;;;;20.15;50.49;100747.47;7356457;19;20086;-65
2023/07/02 09:27:00;;;;;;;6.43;1.38;;;;;;;20.18;50.93;100744.34;7358637;19;20022;-64
2023/07/02 09:29:30;;;;;;;12.40;2.20;;;;;;;20.27;51.31;100737.69;7356582;19;20055;-65
2023/07/02 09:32:00;;;;;;;7.38;1.63;;;;;;;20.40;50.16;100740.28;7361383;19;20807;-64
2023/07/02 09:34:34;;;;;;;10.75;2.42;;;;;;;20.48;50.02;100745.34;7365499;19;20094;-65
2023/07/02 09:37:05;;;;;;;7.60;1.48;;;;;;;20.55;49.22;100747.16;7362223;19;20062;-65
2023/07/02 09:39:34;;;;;;;14.27;4.05;;;;;;;20.51;49.45;100748.63;7360494;19;20850;-64
2023/07/02 09:42:06;;;;;;;13.73;3.25;;;;;;;20.47;50.18;100735.69;7358238;19;20093;-65
2023/07/02 09:44:34;;;;;;;8.07;1.95;;;;;;;20.47;47.73;100746.38;7355599;19;20034;-64
2023/07/02 09:47:04;;;;;;;8.02;1.55;;;;;;;20.51;47.91;100748.63;7354355;19;20023;-66
2023/07/02 09:49:34;;;;;;;6.05;1.80;;;;;;;20.49;48.69;100746.16;7350956;19;20343;-64
2023/07/02 09:52:05;;;;;;;9.05;1.60;;;;;;;20.45;50.01;100734.28;7352972;19;20019;-64
2023/07/02 09:54:33;;;;;;;10.18;2.17;;;;;;;20.43;50.05;100745.19;7357089;19;20349;-65
2023/07/02 09:57:01;;;;;;;9.40;2.72;;;;;;;20.41;50.45;100749.13;7359816;19;20570;-66
2023/07/02 09:59:30;;;;;;;10.10;2.22;;;;;;;20.33;50.68;100741.38;7364014;19;20025;-64
2023/07/02 10:01:57;;;;;;;11.45;2.42;;;;;;;20.29;50.98;100742.81;7362034;19;20414;-66
2023/07/02 10:04:25;;;;;;;10.50;2.22;;;;;;;20.27;51.37;100742.19;7360666;19;20407;-65
2023/07/02 10:06:55;;;;;;;10.82;2.88;;;;;;;20.27;52.31;100744.88;7364851;19;20018;-65
2023/07/02 10:09:44;;;;;;;12.93;2.67;;;;;;;20.24;51.31;100742.66;7365373;19;20617;-65
2023/07/02 10:12:23;;;;;;;8.27;2.95;;;;;;;20.27;52.22;100734.19;7365185;19;20022;-67
2023/07/02 10:14:53;;;;;;;14.95;4.35;;;;;;;20.31;51.74;100736.25;7364303;19;20117;-65
2023/07/02 10:17:34;;;;;;;9.20;2.65;;;;;;;20.32;52.30;100734.38;7355390;19;20092;-66
2023/07/02 10:20:07;;;;;;;8.75;1.67;;;;;;;20.40;50.89;100736.78;7361527;19;20014;-65
2023/07/02 10:22:44;;;;;;;8.90;2.13;;;;;;;20.44;50.73;100732.63;7363876;19;20024;-66
2023/07/02 10:25:11;;;;;;;8.15;2.53;;;;;;;20.53;50.99;100733.97;7364960;19;20011;-65
2023/07/02 10:27:41;;;;;;;8.43;2.05;;;;;;;20.57;50.10;100727.16;7363819;19;20413;-65
2023/07/02 10:30:10;;;;;;;7.45;1.80;;;;;;;20.54;49.36;100737.47;7358369;19;20920;-66
2023/07/02 10:32:38;;;;;;;6.22;2.15;;;;;;;20.47;49.71;100734.84;7361533;19;20015;-66
2023/07/02 10:35:17;;;;;;;7.05;1.75;;;;;;;20.46;50.62;100738.59;7359554;19;20022;-66
2023/07/02 10:37:45;;;;;;;10.00;1.83;;;;;;;20.47;49.91;100740.22;7361192;19;20014;-65
2023/07/02 10:40:13;;;;;;;12.95;2.00;;;;;;;20.45;50.13;100737.78;7360496;19;20994;-65
2023/07/02 10:42:49;;;;;;;8.48;2.00;;;;;;;20.49;49.88;100732.78;7362879;19;20520;-64
2023/07/02 10:45:17;;;;;;;7.75;1.75;;;;;;;20.53;49.78;100733.97;7357039;19;20454;-64
2023/07/02 10:47:45;;;;;;;11.50;1.85;;;;;;;20.48;48.75;100736.50;7359606;19;20027;-64
2023/07/02 10:50:16;;;;;;;8.80;1.70;;;;;;;20.44;48.99;100736.13;7306903;19;20047;-67
2023/07/02 10:52:43;;;;;;;8.18;1.70;;;;;;;20.45;49.37;100753.81;7358612;19;20590;-65
2023/07/02 10:55:17;;;;;;;8.07;2.30;;;;;;;20.46;49.87;100759.97;7361377;19;20038;-65
2023/07/02 10:57:45;;;;;;;9.32;1.83;;;;;;;20.46;49.73;100749.28;7357703;19;20031;-64
2023/07/02 11:00:14;;;;;;;10.30;1.77;;;;;;;20.51;49.91;100746.78;7360123;19;20503;-65
2023/07/02 11:02:41;;;;;;;9.25;1.90;;;;;;;20.56;49.00;100743.44;7360995;19;20010;-64
2023/07/02 11:05:12;;;;;;;6.75;1.67;;;;;;;20.60;48.95;100744.63;7359255;19;20013;-65
2023/07/02 11:07:41;;;;;;;6.47;1.65;;;;;;;20.69;49.65;100737.94;7361262;19;20010;-65
2023/07/02 11:10:10;;;;;;;10.30;1.75;;;;;;;20.68;47.93;100739.81;7361530;19;20048;-65
2023/07/02 11:12:37;;;;;;;9.50;1.80;;;;;;;20.65;48.74;100732.22;7363429;19;20015;-65
2023/07/02 11:15:15;;;;;;;6.22;1.52;;;;;;;20.67;48.88;100740.84;7343117;19;20014;-65
2023/07/02 11:17:42;;;;;;;8.68;1.90;;;;;;;20.68;50.17;100737.13;7361280;19;20714;-65
2023/07/02 11:20:11;;;;;;;9.48;1.90;;;;;;;20.70;48.56;100742.25;7357850;19;20379;-65
2023/07/02 11:22:39;;;;;;;9.73;1.70;;;;;;;20.67;47.51;100726.69;7361615;19;20015;-65
2023/07/02 11:25:12;;;;;;;6.30;1.77;;;;;;;20.71;47.63;100723.34;7361280;19;20117;-65